Time;durP1;ratioP1;P1;durP2;ratioP2;P2;SDS_P1;SDS_P2;PMS_P1;PMS_P2;Temp;Humidity;BMP_temperature;BMP_pressure;BME280_temperature;BME280_humidity;BME280_pressure;Samples;Min_cycle;Max_cycle;Signal;HPM_P1;HPM_P2
2023/04/03 00:00:11;;;;;;;9.80;9.50;;;20.10;51.60;;;;;;5092690;28;20502;-58
2023/04/03 00:02:40;;;;;;;10.03;9.83;;;20.10;51.60;;;;;;5087661;28;20522;-55
2023/04/03 00:05:08;;;;;;;9.50;9.30;;;20.00;51.50;;;;;;5072417;28;20508;-60
2023/04/03 00:07:34;;;;;;;9.60;9.40;;;20.00;51.60;;;;;;5072141;28;20518;-54
2023/04/03 00:10:01;;;;;;;10.30;10.00;;;20.00;51.60;;;;;;5072304;28;20485;-59
2023/04/03 00:12:28;;;;;;;9.63;9.33;;;20.00;51.60;;;;;;5071482;28;20519;-58
2023/04/03 00:14:55;;;;;;;10.33;10.03;;;20.00;51.60;;;;;;5078291;28;20957;-59
2023/04/03 00:17:22;;;;;;;10.07;9.77;;;20.00;51.60;;;;;;5092363;28;20471;-56
2023/04/03 00:19:50;;;;;;;10.93;10.53;;;20.00;51.70;;;;;;5092311;28;20512;-58
2023/04/03 00:22:17;;;;;;;10.47;10.17;;;19.90;51.60;;;;;;5086509;28;20475;-59
2023/04/03 00:24:44;;;;;;;10.13;9.93;;;19.90;51.60;;;;;;5072088;28;20557;-55
2023/04/03 00:27:11;;;;;;;10.27;9.97;;;19.90;51.60;;;;;;5071731;28;20479;-55
2023/04/03 00:29:38;;;;;;;10.23;9.93;;;19.90;51.60;;;;;;5071881;28;20447;-55
2023/04/03 00:32:05;;;;;;;10.77;10.47;;;19.90;51.60;;;;;;5071711;28;21058;-58
2023/04/03 00:34:32;;;;;;;10.40;10.10;;;19.90;51.70;;;;;;5091170;28;20445;-58
2023/04/03 00:37:01;;;;;;;10.37;10.17;;;19.90;51.70;;;;;;5092034;28;20878;-59
2023/04/03 00:39:28;;;;;;;10.77;10.47;;;19.90;51.60;;;;;;5092101;28;20482;-58
2023/04/03 00:41:55;;;;;;;9.90;9.70;;;19.80;51.60;;;;;;5091924;28;20509;-58
2023/04/03 00:44:23;;;;;;;9.80;9.60;;;19.80;51.60;;;;;;5089562;28;20450;-60
2023/04/03 00:46:50;;;;;;;10.50;10.20;;;19.80;51.60;;;;;;5071470;28;20946;-57
2023/04/03 00:49:17;;;;;;;9.80;9.50;;;19.80;51.60;;;;;;5071732;28;20474;-59
2023/04/03 00:51:44;;;;;;;9.23;9.00;;;19.80;51.60;;;;;;5071508;28;20570;-54
2023/04/03 00:54:13;;;;;;;11.13;10.73;;;19.80;51.70;;;;;;5086089;28;21009;-58
2023/04/03 00:56:40;;;;;;;10.30;9.83;;;19.80;51.70;;;;;;5091717;28;20913;-59
2023/04/03 00:59:10;;;;;;;10.13;9.83;;;19.70;51.60;;;;;;5091819;28;20488;-59
2023/04/03 01:01:38;;;;;;;9.93;9.73;;;19.70;51.60;;;;;;5091717;28;20490;-56
2023/04/03 01:04:06;;;;;;;9.43;9.17;;;19.70;51.50;;;;;;5078081;28;20534;-56
2023/04/03 01:06:37;;;;;;;9.40;9.20;;;19.70;51.60;;;;;;5071405;28;20518;-60
2023/04/03 01:09:04;;;;;;;10.77;10.53;;;19.70;51.60;;;;;;5071635;28;20492;-59
2023/04/03 01:11:33;;;;;;;10.00;9.70;;;19.70;51.60;;;;;;5076083;28;20462;-60
2023/04/03 01:14:01;;;;;;;9.73;9.43;;;19.70;51.60;;;;;;5091725;28;20493;-58
2023/04/03 01:16:30;;;;;;;10.00;9.80;;;19.70;51.60;;;;;;5091729;28;20457;-57
2023/04/03 01:18:58;;;;;;;10.00;9.80;;;19.70;51.70;;;;;;5091467;28;20453;-56
2023/04/03 01:21:48;;;;;;;10.50;10.20;;;19.60;51.60;;;;;;5087611;28;20546;-59
2023/04/03 01:24:34;;;;;;;9.87;9.67;;;19.60;51.60;;;;;;5075048;28;20477;-59
2023/04/03 01:27:06;;;;;;;10.07;9.87;;;19.60;51.60;;;;;;5075232;28;20478;-55
2023/04/03 01:29:33;;;;;;;11.13;10.73;;;19.60;51.60;;;;;;5075437;28;20475;-58
2023/04/03 01:32:02;;;;;;;10.73;10.43;;;19.60;51.60;;;;;;5075085;28;20927;-58
2023/04/03 01:34:30;;;;;;;10.00;9.77;;;19.60;51.70;;;;;;5088920;28;20503;-57
2023/04/03 01:36:58;;;;;;;9.70;9.50;;;19.60;51.60;;;;;;5095375;28;20485;-57
2023/04/03 01:39:25;;;;;;;10.63;10.33;;;19.60;51.70;;;;;;5093735;28;20530;-57
2023/04/03 01:41:52;;;;;;;9.90;9.70;;;19.50;51.60;;;;;;5095323;28;21007;-58
2023/04/03 01:44:19;;;;;;;10.10;9.87;;;19.50;51.60;;;;;;5095489;28;20477;-56
2023/04/03 01:46:46;;;;;;;9.97;9.77;;;19.50;51.60;;;;;;5078638;28;20872;-58
2023/04/03 01:49:14;;;;;;;10.83;10.53;;;19.50;51.60;;;;;;5075021;28;20486;-57
2023/04/03 01:51:41;;;;;;;10.50;10.20;;;19.50;51.60;;;;;;5074809;28;20516;-55
2023/04/03 01:54:08;;;;;;;11.10;10.80;;;19.50;51.60;;;;;;5082723;28;20470;-58
2023/04/03 01:56:35;;;;;;;10.50;10.20;;;19.50;51.70;;;;;;5095040;28;20963;-59
2023/04/03 01:59:02;;;;;;;10.80;10.50;;;19.50;51.60;;;;;;5095189;28;20503;-59
2023/04/03 02:01:28;;;;;;;9.90;9.70;;;19.50;51.60;;;;;;5095140;28;20497;-58
2023/04/03 02:03:55;;;;;;;10.30;10.00;;;19.50;51.70;;;;;;5089721;28;20467;-59
2023/04/03 02:06:24;;;;;;;10.60;10.30;;;19.40;51.60;;;;;;5084697;28;20447;-60
2023/04/03 02:08:50;;;;;;;10.07;9.83;;;19.40;51.60;;;;;;5074350;28;20942;-57
2023/04/03 02:11:17;;;;;;;10.23;10.00;;;19.40;51.60;;;;;;5074484;28;20499;-57
2023/04/03 02:13:44;;;;;;;9.80;9.50;;;19.40;51.60;;;;;;5074443;28;20569;-60
2023/04/03 02:16:12;;;;;;;9.77;9.57;;;19.40;51.60;;;;;;5082459;28;20524;-59
2023/04/03 02:18:39;;;;;;;10.50;10.30;;;19.40;51.60;;;;;;5094537;28;20809;-56
2023/04/03 02:21:06;;;;;;;9.60;9.30;;;19.40;51.70;;;;;;5094694;28;20497;-59
2023/04/03 02:23:35;;;;;;;8.90;8.70;;;19.40;51.70;;;;;;5094704;28;20474;-59
2023/04/03 02:26:10;;;;;;;10.43;10.03;;;19.30;51.70;;;;;;5094541;28;20450;-59
2023/04/03 02:28:38;;;;;;;9.67;9.47;;;19.30;51.60;;;;;;5080264;28;20478;-58
2023/04/03 02:31:07;;;;;;;10.23;9.93;;;19.40;51.70;;;;;;5074136;28;20529;-58
2023/04/03 02:33:35;;;;;;;9.90;9.70;;;19.30;51.70;;;;;;5074139;28;20490;-58
2023/04/03 02:36:03;;;;;;;9.80;9.60;;;19.30;51.70;;;;;;5073572;28;20453;-59
2023/04/03 02:38:30;;;;;;;9.80;9.53;;;19.30;51.70;;;;;;5073998;28;20539;-60
2023/04/03 02:41:03;;;;;;;10.63;10.23;;;19.30;51.60;;;;;;5090342;28;20541;-60
2023/04/03 02:43:29;;;;;;;9.77;9.47;;;19.30;51.70;;;;;;5094301;28;20466;-57
2023/04/03 02:45:56;;;;;;;9.60;9.40;;;19.30;51.70;;;;;;5094371;28;20476;-58
2023/04/03 02:48:25;;;;;;;9.60;9.40;;;19.30;51.60;;;;;;5094079;28;20979;-54
2023/04/03 02:50:52;;;;;;;11.20;10.90;;;19.30;51.70;;;;;;5094101;28;20467;-56
2023/04/03 02:53:19;;;;;;;9.87;9.60;;;19.30;51.70;;;;;;5074095;28;20558;-58
2023/04/03 02:55:46;;;;;;;9.77;9.57;;;19.20;51.60;;;;;;5074091;28;20961;-56
2023/04/03 02:58:15;;;;;;;9.83;9.63;;;19.20;51.60;;;;;;5073562;28;20526;-58
2023/04/03 03:00:42;;;;;;;9.90;9.70;;;19.20;51.60;;;;;;5085019;28;20490;-58
2023/04/03 03:03:09;;;;;;;9.97;9.73;;;19.20;51.60;;;;;;5093941;28;20477;-57
2023/04/03 03:05:36;;;;;;;10.67;10.37;;;19.20;51.60;;;;;;5093837;28;20446;-57
2023/04/03 03:08:03;;;;;;;10.07;9.87;;;19.20;51.70;;;;;;5093650;28;20812;-53
2023/04/03 03:10:30;;;;;;;10.20;9.90;;;19.20;51.60;;;;;;5083681;28;20497;-57
2023/04/03 03:12:57;;;;;;;10.43;10.13;;;19.20;51.70;;;;;;5073422;28;20475;-56
2023/04/03 03:15:25;;;;;;;9.97;9.77;;;19.20;51.70;;;;;;5073568;28;20530;-58
2023/04/03 03:17:52;;;;;;;10.23;9.93;;;19.20;51.70;;;;;;5073178;28;20482;-55
2023/04/03 03:20:19;;;;;;;10.47;10.07;;;19.20;51.70;;;;;;5081958;28;20490;-57
2023/04/03 03:22:46;;;;;;;10.00;9.80;;;19.20;51.70;;;;;;5093572;28;20528;-58
2023/04/03 03:25:12;;;;;;;10.53;10.23;;;19.20;51.80;;;;;;5093563;28;20473;-58
2023/04/03 03:27:40;;;;;;;10.63;10.33;;;19.10;51.70;;;;;;5093203;28;20480;-58
2023/04/03 03:30:08;;;;;;;11.17;10.87;;;19.10;51.70;;;;;;5086055;28;20558;-59
2023/04/03 03:32:37;;;;;;;10.47;10.20;;;19.10;51.80;;;;;;5073015;28;20511;-57
2023/04/03 03:35:04;;;;;;;10.20;9.90;;;19.10;51.70;;;;;;5073071;28;20470;-56
2023/04/03 03:37:31;;;;;;;9.50;9.30;;;19.10;51.80;;;;;;5072862;28;20520;-57
2023/04/03 03:39:58;;;;;;;10.83;10.43;;;19.10;51.80;;;;;;5072824;28;20900;-56
2023/04/03 03:42:25;;;;;;;10.93;10.63;;;19.10;51.80;;;;;;5081510;28;20470;-57
2023/04/03 03:44:51;;;;;;;10.60;10.30;;;19.10;51.90;;;;;;5093115;28;20442;-56
2023/04/03 03:47:18;;;;;;;10.63;10.33;;;19.00;51.80;;;;;;5091935;28;20863;-57
2023/04/03 03:49:47;;;;;;;10.10;9.80;;;19.10;51.90;;;;;;5092228;28;20538;-58
2023/04/03 03:52:14;;;;;;;9.67;9.47;;;19.00;51.90;;;;;;5072692;28;20475;-55
2023/04/03 03:54:40;;;;;;;10.03;9.83;;;19.10;52.00;;;;;;5072522;28;20515;-59
2023/04/03 03:57:07;;;;;;;11.03;10.80;;;19.00;51.90;;;;;;5072410;28;20858;-57
2023/04/03 03:59:34;;;;;;;10.30;10.10;;;19.00;51.90;;;;;;5072468;28;20451;-57
2023/04/03 04:02:02;;;;;;;10.57;10.27;;;19.00;52.00;;;;;;5073245;28;20474;-57
2023/04/03 04:04:29;;;;;;;9.60;9.40;;;19.00;52.00;;;;;;5072409;28;20443;-57
2023/04/03 04:06:57;;;;;;;10.70;10.43;;;19.00;52.00;;;;;;5072282;28;20446;-59
2023/04/03 04:09:24;;;;;;;10.27;10.00;;;19.00;52.00;;;;;;5083076;28;20894;-59
2023/04/03 04:11:51;;;;;;;11.07;10.77;;;19.00;52.00;;;;;;5092542;28;20509;-58
2023/04/03 04:14:18;;;;;;;10.23;9.93;;;19.00;52.00;;;;;;5092548;28;20584;-57
2023/04/03 04:16:45;;;;;;;10.80;10.50;;;19.00;52.00;;;;;;5092357;28;20442;-57
2023/04/03 04:19:11;;;;;;;10.87;10.47;;;19.00;52.10;;;;;;5083268;28;20443;-57
2023/04/03 04:21:39;;;;;;;10.30;10.10;;;19.00;52.20;;;;;;5092373;28;20500;-57
2023/04/03 04:24:08;;;;;;;12.73;11.83;;;19.00;53.10;;;;;;5092410;28;20441;-58
2023/04/03 04:26:35;;;;;;;13.27;12.17;;;19.00;54.10;;;;;;5092237;28;20530;-55
2023/04/03 04:29:02;;;;;;;12.80;12.20;;;19.00;54.90;;;;;;5092385;28;20485;-58
2023/04/03 04:31:29;;;;;;;12.73;11.80;;;19.10;56.20;;;;;;5080101;28;20514;-58
2023/04/03 04:33:56;;;;;;;11.87;11.00;;;19.10;57.60;;;;;;5071885;28;20574;-63
2023/04/03 04:36:22;;;;;;;12.40;11.60;;;19.10;59.10;;;;;;5079773;28;20464;-59
2023/04/03 04:38:52;;;;;;;13.00;11.80;;;19.10;61.00;;;;;;5078847;28;20546;-59
2023/04/03 04:41:22;;;;;;;12.77;12.07;;;19.10;64.00;;;;;;5091329;28;20469;-59
2023/04/03 04:43:48;;;;;;;13.97;13.03;;;19.00;64.20;;;;;;5092192;28;20446;-60
2023/04/03 04:46:15;;;;;;;13.40;12.53;;;19.10;63.90;;;;;;5092050;28;20481;-60
2023/04/03 04:48:42;;;;;;;14.70;13.27;;;19.00;63.20;;;;;;5091770;28;20481;-60
2023/04/03 04:51:09;;;;;;;18.13;12.57;;;19.10;62.80;;;;;;5091807;28;20541;-60
2023/04/03 04:53:36;;;;;;;14.40;13.30;;;19.10;62.30;;;;;;5091951;28;21048;-61
2023/04/03 04:56:04;;;;;;;14.23;13.20;;;19.00;61.80;;;;;;5091908;28;20481;-60
2023/04/03 04:58:32;;;;;;;13.70;12.80;;;19.00;61.30;;;;;;5091349;28;20446;-59
2023/04/03 05:01:00;;;;;;;15.37;14.10;;;19.00;60.90;;;;;;5091765;28;20894;-60
2023/04/03 05:03:28;;;;;;;13.80;12.93;;;19.00;60.30;;;;;;5091780;28;20441;-58
2023/04/03 05:05:54;;;;;;;14.37;13.53;;;19.00;60.10;;;;;;5091773;28;20528;-59
2023/04/03 05:08:22;;;;;;;13.83;12.90;;;19.00;59.90;;;;;;5091549;28;20445;-60
2023/04/03 05:10:49;;;;;;;13.23;12.53;;;19.00;59.60;;;;;;5091690;28;20501;-61
2023/04/03 05:13:16;;;;;;;13.57;12.77;;;19.00;59.40;;;;;;5091572;28;20478;-59
2023/04/03 05:15:44;;;;;;;13.90;13.20;;;19.00;59.80;;;;;;5091753;28;20846;-60
2023/04/03 05:18:12;;;;;;;14.63;13.93;;;19.00;59.00;;;;;;5091440;28;20778;-60
2023/04/03 05:20:39;;;;;;;14.03;13.03;;;19.00;58.90;;;;;;5091614;28;20910;-60
2023/04/03 05:23:06;;;;;;;13.20;12.43;;;19.00;58.70;;;;;;5091570;28;20523;-59
2023/04/03 05:25:33;;;;;;;13.10;12.37;;;18.90;59.00;;;;;;5091500;28;20457;-58
2023/04/03 05:28:00;;;;;;;12.73;12.07;;;19.00;58.30;;;;;;5091415;28;20446;-58
2023/04/03 05:30:27;;;;;;;13.53;12.53;;;18.90;58.10;;;;;;5091870;28;20532;-60
2023/04/03 05:32:55;;;;;;;12.10;11.20;;;19.00;58.00;;;;;;5091393;28;20481;-60
2023/04/03 05:35:22;;;;;;;11.90;10.93;;;18.90;57.80;;;;;;5091554;28;20489;-59
2023/04/03 05:37:49;;;;;;;11.67;11.07;;;18.90;57.70;;;;;;5091220;28;20486;-61
2023/04/03 05:40:16;;;;;;;11.83;11.23;;;18.90;57.60;;;;;;5091423;28;20466;-59
2023/04/03 05:42:44;;;;;;;12.33;11.63;;;18.90;57.50;;;;;;5091533;28;20470;-60
2023/04/03 05:45:11;;;;;;;11.80;11.30;;;18.90;57.40;;;;;;5091372;28;20449;-60
2023/04/03 05:47:38;;;;;;;12.53;11.90;;;18.90;57.30;;;;;;5091203;28;20473;-61
2023/04/03 05:50:07;;;;;;;11.97;11.47;;;18.90;57.20;;;;;;5091237;28;20478;-61
2023/04/03 05:52:38;;;;;;;12.77;11.97;;;18.90;57.10;;;;;;5091211;28;20478;-60
2023/04/03 05:55:06;;;;;;;12.60;12.03;;;18.90;57.00;;;;;;5091269;28;20478;-59
2023/04/03 05:57:33;;;;;;;13.00;12.60;;;18.90;56.90;;;;;;5091085;28;20477;-59
2023/04/03 06:00:00;;;;;;;13.17;12.47;;;18.90;56.90;;;;;;5091152;28;20482;-59
2023/04/03 06:02:27;;;;;;;11.90;11.37;;;18.90;56.80;;;;;;5091202;28;20537;-59
2023/04/03 06:04:54;;;;;;;13.10;12.60;;;18.80;56.70;;;;;;5091221;28;20477;-60
2023/04/03 06:07:27;;;;;;;13.40;12.90;;;18.80;56.60;;;;;;5091033;28;20450;-59
2023/04/03 06:09:55;;;;;;;15.13;14.53;;;18.80;56.50;;;;;;5092445;28;20439;-60
2023/04/03 06:12:22;;;;;;;13.43;12.73;;;18.80;56.40;;;;;;5095014;28;20473;-59
2023/04/03 06:14:49;;;;;;;12.40;11.90;;;18.80;56.40;;;;;;5094963;28;20521;-61
2023/04/03 06:17:17;;;;;;;12.90;12.50;;;18.80;56.30;;;;;;5094684;28;20451;-60
2023/04/03 06:19:44;;;;;;;13.93;13.33;;;18.80;56.20;;;;;;5094763;28;20941;-61
2023/04/03 06:22:12;;;;;;;14.40;13.60;;;18.80;56.20;;;;;;5094543;28;20494;-62
2023/04/03 06:24:41;;;;;;;14.97;14.17;;;18.80;56.20;;;;;;5094605;28;20446;-61
2023/04/03 06:27:08;;;;;;;14.50;13.80;;;18.80;56.10;;;;;;5094524;28;20449;-61
2023/04/03 06:29:35;;;;;;;12.80;12.17;;;18.80;56.00;;;;;;5094496;28;20478;-60
2023/04/03 06:32:02;;;;;;;12.80;12.30;;;18.80;56.00;;;;;;5094293;28;20891;-61
2023/04/03 06:34:28;;;;;;;12.70;12.30;;;18.80;56.00;;;;;;5094468;28;20925;-61
2023/04/03 06:36:55;;;;;;;14.03;13.17;;;18.80;55.90;;;;;;5094293;28;20501;-61
2023/04/03 06:39:23;;;;;;;12.77;12.27;;;18.80;55.90;;;;;;5094385;28;20478;-60
2023/04/03 06:41:52;;;;;;;13.20;12.77;;;18.80;55.80;;;;;;5094325;28;20466;-58
2023/04/03 06:44:19;;;;;;;13.80;13.30;;;18.80;55.80;;;;;;5094324;28;20475;-58
2023/04/03 06:46:47;;;;;;;12.70;12.10;;;18.80;55.80;;;;;;5094046;28;20956;-59
2023/04/03 06:49:14;;;;;;;12.90;12.50;;;18.70;55.70;;;;;;5094069;28;20449;-59
2023/04/03 06:51:41;;;;;;;12.80;12.30;;;18.80;55.70;;;;;;5094142;28;20477;-60
2023/04/03 06:54:08;;;;;;;12.83;12.30;;;18.70;55.60;;;;;;5094152;28;20517;-58
2023/04/03 06:56:36;;;;;;;13.07;12.57;;;18.70;55.50;;;;;;5093892;28;20446;-61
2023/04/03 06:59:04;;;;;;;13.47;12.97;;;18.70;55.50;;;;;;5093902;28;20478;-61
2023/04/03 07:01:32;;;;;;;12.70;12.30;;;18.70;55.50;;;;;;5093875;28;20462;-58
2023/04/03 07:03:59;;;;;;;12.57;11.97;;;18.70;55.50;;;;;;5094008;28;20477;-58
2023/04/03 07:06:27;;;;;;;11.97;11.57;;;18.70;55.40;;;;;;5093840;28;20474;-61
2023/04/03 07:08:54;;;;;;;13.13;12.73;;;18.70;55.30;;;;;;5093578;28;20531;-60
2023/04/03 07:11:22;;;;;;;11.97;11.57;;;18.70;55.30;;;;;;5093711;28;20501;-59
2023/04/03 07:13:49;;;;;;;12.20;11.80;;;18.70;55.30;;;;;;5093667;28;20547;-60
2023/04/03 07:16:17;;;;;;;12.40;11.90;;;18.70;55.30;;;;;;5093691;28;20489;-61
2023/04/03 07:18:44;;;;;;;12.37;11.97;;;18.70;55.20;;;;;;5093578;28;20482;-61
2023/04/03 07:21:11;;;;;;;12.47;11.93;;;18.70;55.20;;;;;;5093458;28;20494;-59
2023/04/03 07:23:38;;;;;;;12.63;12.23;;;18.70;55.20;;;;;;5093564;28;20474;-62
2023/04/03 07:26:06;;;;;;;11.40;11.10;;;18.70;55.20;;;;;;5093897;28;20558;-60
2023/04/03 07:28:33;;;;;;;12.30;11.70;;;18.70;55.10;;;;;;5093300;28;20434;-60
2023/04/03 07:31:02;;;;;;;11.40;11.10;;;18.70;55.10;;;;;;5093262;28;20509;-61
2023/04/03 07:33:31;;;;;;;12.03;11.63;;;18.70;55.10;;;;;;5093346;28;20446;-61
2023/04/03 07:35:58;;;;;;;12.27;11.80;;;18.60;55.00;;;;;;5093494;28;20446;-60
2023/04/03 07:38:25;;;;;;;12.00;11.70;;;18.70;55.00;;;;;;5093148;28;20862;-59
2023/04/03 07:40:53;;;;;;;11.53;11.23;;;18.70;55.00;;;;;;5093189;28;20466;-61
2023/04/03 07:43:21;;;;;;;11.77;11.47;;;18.60;54.90;;;;;;5093198;28;20446;-60
2023/04/03 07:45:50;;;;;;;12.13;11.73;;;18.70;55.00;;;;;;5093067;28;20470;-60
2023/04/03 07:48:18;;;;;;;11.90;11.50;;;18.60;54.90;;;;;;5092930;28;20461;-61
2023/04/03 07:50:46;;;;;;;12.17;11.77;;;18.60;54.90;;;;;;5092949;28;20894;-60
2023/04/03 07:53:13;;;;;;;11.70;11.40;;;18.60;54.80;;;;;;5092944;28;20445;-60
2023/04/03 07:55:43;;;;;;;12.23;11.83;;;18.60;54.80;;;;;;5093001;28;20482;-60
2023/04/03 07:58:11;;;;;;;12.13;11.70;;;18.60;54.80;;;;;;5092708;28;20443;-62
2023/04/03 08:00:39;;;;;;;12.00;11.70;;;18.60;54.80;;;;;;5092799;28;20469;-61
2023/04/03 08:03:06;;;;;;;11.30;11.00;;;18.60;54.70;;;;;;5092875;28;20457;-62
2023/04/03 08:05:37;;;;;;;12.10;11.77;;;18.60;54.80;;;;;;5092658;28;20478;-61
2023/04/03 08:08:06;;;;;;;12.53;11.50;;;18.60;54.70;;;;;;5092437;28;20959;-61
2023/04/03 08:10:33;;;;;;;12.70;12.30;;;18.60;54.70;;;;;;5092558;28;20764;-61
2023/04/03 08:13:00;;;;;;;11.93;11.63;;;18.60;54.60;;;;;;5092512;28;20995;-61
2023/04/03 08:15:27;;;;;;;12.80;12.30;;;18.60;54.60;;;;;;5092385;28;20577;-61
2023/04/03 08:17:55;;;;;;;12.13;11.77;;;18.60;54.60;;;;;;5092228;28;20470;-60
2023/04/03 08:20:22;;;;;;;12.00;11.60;;;18.50;54.50;;;;;;5092383;28;20911;-61
2023/04/03 08:22:49;;;;;;;12.10;11.80;;;18.60;54.60;;;;;;5092521;28;20465;-61
2023/04/03 08:25:18;;;;;;;11.80;11.40;;;18.50;54.50;;;;;;5092345;28;20470;-61
2023/04/03 08:27:45;;;;;;;11.13;10.83;;;18.60;54.60;;;;;;5092124;28;20929;-60
2023/04/03 08:30:13;;;;;;;10.90;10.60;;;18.50;54.40;;;;;;5092096;28;20501;-60
2023/04/03 08:32:41;;;;;;;11.80;11.40;;;18.60;54.50;;;;;;5091725;28;20474;-59
2023/04/03 08:35:09;;;;;;;11.20;10.90;;;18.60;54.50;;;;;;5092244;28;20482;-60
2023/04/03 08:37:37;;;;;;;11.47;11.13;;;18.50;54.40;;;;;;5092012;28;20529;-60
2023/04/03 08:40:04;;;;;;;10.93;10.60;;;18.60;54.40;;;;;;5092084;28;20438;-60
2023/04/03 08:42:44;;;;;;;11.00;10.70;;;18.50;54.30;;;;;;5091998;28;20453;-59
2023/04/03 08:45:15;;;;;;;11.10;10.73;;;18.50;54.30;;;;;;5092062;28;20474;-60
2023/04/03 08:47:48;;;;;;;11.20;10.90;;;18.50;54.20;;;;;;5092052;28;20802;-60
2023/04/03 08:50:17;;;;;;;11.13;10.83;;;18.50;54.30;;;;;;5091973;28;20498;-60
2023/04/03 08:52:48;;;;;;;11.07;10.67;;;18.50;54.20;;;;;;5091941;28;20478;-61
2023/04/03 08:55:23;;;;;;;11.20;10.80;;;18.50;54.20;;;;;;5091948;28;20513;-60
2023/04/03 08:57:58;;;;;;;12.03;11.73;;;18.50;54.20;;;;;;5091767;28;20453;-58
2023/04/03 09:00:28;;;;;;;10.93;10.53;;;18.50;54.20;;;;;;5091825;28;20880;-61
2023/04/03 09:02:56;;;;;;;11.10;10.80;;;18.50;54.20;;;;;;5091879;28;20957;-61
2023/04/03 09:05:35;;;;;;;10.77;10.47;;;18.50;54.20;;;;;;5091869;28;20480;-61
2023/04/03 09:08:08;;;;;;;11.53;11.23;;;18.50;54.10;;;;;;5091711;28;20878;-60
2023/04/03 09:10:38;;;;;;;11.37;10.97;;;18.50;54.10;;;;;;5091731;28;20893;-60
2023/04/03 09:13:12;;;;;;;10.50;10.20;;;18.50;54.10;;;;;;5091834;28;20529;-60
2023/04/03 09:15:40;;;;;;;9.57;9.37;;;18.50;54.10;;;;;;5091585;28;20569;-60
2023/04/03 09:18:16;;;;;;;10.00;9.70;;;18.50;54.10;;;;;;5091701;28;20478;-60
2023/04/03 09:20:50;;;;;;;10.80;10.50;;;18.50;54.10;;;;;;5091678;28;20871;-60
2023/04/03 09:23:23;;;;;;;10.87;10.27;;;18.50;54.10;;;;;;5091665;28;20441;-59
2023/04/03 09:25:54;;;;;;;10.70;10.40;;;18.50;54.10;;;;;;5091685;28;20450;-61
2023/04/03 09:28:22;;;;;;;10.83;10.33;;;18.50;54.00;;;;;;5091311;28;20965;-61
2023/04/03 09:30:49;;;;;;;10.50;10.00;;;18.50;54.00;;;;;;5091373;28;20478;-59
2023/04/03 09:33:17;;;;;;;11.20;10.90;;;18.50;54.00;;;;;;5091448;28;20453;-60
2023/04/03 09:35:45;;;;;;;10.87;10.50;;;18.50;54.00;;;;;;5091329;28;20514;-59
2023/04/03 09:38:20;;;;;;;10.73;10.43;;;18.50;54.00;;;;;;5091158;28;20442;-61
2023/04/03 09:40:49;;;;;;;11.50;11.17;;;18.50;54.00;;;;;;5091444;28;20549;-60
2023/04/03 09:43:32;;;;;;;10.70;10.40;;;18.50;54.00;;;;;;5091726;28;20478;-61
2023/04/03 09:46:30;;;;;;;10.77;10.57;;;18.50;53.90;;;;;;5095594;28;20473;-61
2023/04/03 09:48:58;;;;;;;11.50;11.10;;;18.50;53.90;;;;;;5095729;28;20481;-62
2023/04/03 09:51:28;;;;;;;11.17;10.87;;;18.50;53.90;;;;;;5095543;28;20500;-61
2023/04/03 09:53:56;;;;;;;11.00;10.73;;;18.50;53.90;;;;;;5095696;28;20980;-62
2023/04/03 09:56:25;;;;;;;11.50;11.20;;;18.50;53.80;;;;;;5095846;28;20517;-62
2023/04/03 09:59:09;;;;;;;12.00;11.30;;;18.50;53.80;;;;;;5095463;28;20474;-62
2023/04/03 10:01:37;;;;;;;10.13;9.93;;;18.50;53.80;;;;;;5105348;28;20465;-61
2023/04/03 10:04:10;;;;;;;11.77;11.10;;;18.50;53.80;;;;;;5107875;28;20446;-61
2023/04/03 10:06:43;;;;;;;10.67;10.37;;;18.40;53.70;;;;;;5095733;28;20811;-62
2023/04/03 10:09:20;;;;;;;11.33;11.00;;;18.40;53.70;;;;;;5095926;28;20484;-61
2023/04/03 10:12:04;;;;;;;10.73;10.43;;;18.40;53.70;;;;;;5094856;28;20461;-60
2023/04/03 10:14:35;;;;;;;10.90;10.60;;;18.40;54.20;;;;;;5094939;28;20797;-60
2023/04/03 10:17:19;;;;;;;11.33;11.03;;;18.40;53.70;;;;;;5094868;28;20771;-61
2023/04/03 10:19:49;;;;;;;10.23;10.03;;;18.40;53.70;;;;;;5094921;28;20765;-59
2023/04/03 10:22:22;;;;;;;10.57;10.37;;;18.40;53.60;;;;;;5094712;28;20469;-58
2023/04/03 10:24:56;;;;;;;10.53;10.20;;;18.40;53.60;;;;;;5094748;28;20527;-60
2023/04/03 10:27:33;;;;;;;10.87;10.57;;;18.50;53.60;;;;;;5094646;28;20470;-61
2023/04/03 10:30:10;;;;;;;10.23;10.03;;;18.40;53.60;;;;;;5094498;28;20465;-60
2023/04/03 10:32:52;;;;;;;9.93;9.73;;;18.40;53.60;;;;;;5094603;28;20442;-60
2023/04/03 10:35:32;;;;;;;10.37;10.17;;;18.40;53.60;;;;;;5094544;28;20484;-60
2023/04/03 10:38:07;;;;;;;10.70;10.50;;;18.40;53.60;;;;;;5094342;28;20806;-60
2023/04/03 10:40:44;;;;;;;11.00;10.70;;;18.40;53.60;;;;;;5094309;28;20462;-60
2023/04/03 10:43:19;;;;;;;10.60;10.30;;;18.40;53.50;;;;;;5094251;28;20478;-60
2023/04/03 10:45:57;;;;;;;10.50;10.00;;;18.40;53.50;;;;;;5094401;28;20465;-61
2023/04/03 10:48:35;;;;;;;10.67;10.37;;;18.40;53.50;;;;;;5094170;28;20474;-61
2023/04/03 10:51:12;;;;;;;11.07;10.87;;;18.40;53.50;;;;;;5094254;28;20505;-61
2023/04/03 10:53:45;;;;;;;10.60;10.30;;;18.40;53.40;;;;;;5094149;28;20473;-61
2023/04/03 10:56:19;;;;;;;10.60;10.20;;;18.40;53.40;;;;;;5093662;28;20561;-60
2023/04/03 10:58:54;;;;;;;10.50;10.30;;;18.40;53.40;;;;;;5093919;28;20450;-61
2023/04/03 11:01:28;;;;;;;10.67;10.37;;;18.40;53.40;;;;;;5093885;28;20984;-59
2023/04/03 11:03:58;;;;;;;10.40;10.20;;;18.40;53.40;;;;;;5094059;28;20456;-61
2023/04/03 11:06:29;;;;;;;11.07;10.40;;;18.40;53.40;;;;;;5093912;28;20443;-60
2023/04/03 11:09:03;;;;;;;9.97;9.67;;;18.40;53.40;;;;;;5093752;28;21081;-61
2023/04/03 11:11:33;;;;;;;10.37;10.17;;;18.40;53.40;;;;;;5093779;28;21000;-61
2023/04/03 11:14:04;;;;;;;10.07;9.87;;;18.40;53.40;;;;;;5093850;28;20442;-61
2023/04/03 11:16:37;;;;;;;10.67;10.47;;;18.40;53.30;;;;;;5093779;28;20927;-60
2023/04/03 11:19:12;;;;;;;10.40;10.20;;;18.40;53.30;;;;;;5093632;28;20473;-61
2023/04/03 11:21:43;;;;;;;10.93;10.63;;;18.40;53.30;;;;;;5093596;28;20545;-61
2023/04/03 11:24:21;;;;;;;10.60;10.40;;;18.40;53.20;;;;;;5093718;28;20461;-61
2023/04/03 11:26:50;;;;;;;10.83;10.53;;;18.40;53.20;;;;;;5093606;28;20480;-59
2023/04/03 11:29:23;;;;;;;10.40;10.20;;;18.40;53.30;;;;;;5093427;28;20464;-63
2023/04/03 11:32:05;;;;;;;10.63;10.33;;;18.40;53.20;;;;;;5093775;28;20559;-61
2023/04/03 11:34:39;;;;;;;9.93;9.73;;;18.40;53.20;;;;;;5093432;28;20442;-61
2023/04/03 11:37:14;;;;;;;10.13;9.93;;;18.40;53.20;;;;;;5093234;28;20482;-60
2023/04/03 11:39:47;;;;;;;10.90;10.60;;;18.40;53.20;;;;;;5093362;28;20843;-62
2023/04/03 11:42:17;;;;;;;10.37;10.17;;;18.40;53.20;;;;;;5093175;28;20438;-61
2023/04/03 11:44:44;;;;;;;10.70;10.50;;;18.40;53.20;;;;;;5093137;28;20984;-60
2023/04/03 11:47:33;;;;;;;10.87;10.57;;;18.30;53.10;;;;;;5092933;28;20454;-61
2023/04/03 11:50:05;;;;;;;11.00;10.80;;;18.30;53.10;;;;;;5092877;28;20877;-61
2023/04/03 11:53:01;;;;;;;10.40;10.20;;;18.40;53.10;;;;;;5093113;28;20469;-59
2023/04/03 11:55:54;;;;;;;10.33;10.13;;;18.40;53.10;;;;;;5092863;28;20535;-60
2023/04/03 11:58:22;;;;;;;10.63;10.33;;;18.40;53.10;;;;;;5092625;28;20450;-62
2023/04/03 12:01:08;;;;;;;9.90;9.70;;;18.40;53.10;;;;;;5092845;28;20509;-62
2023/04/03 12:04:06;;;;;;;10.27;10.07;;;18.30;53.00;;;;;;5093036;28;20473;-61
2023/04/03 12:07:15;;;;;;;10.47;10.27;;;18.40;53.10;;;;;;5092585;28;20461;-62
2023/04/03 12:10:19;;;;;;;10.53;10.30;;;18.40;53.00;;;;;;5092680;28;20442;-60
2023/04/03 12:13:02;;;;;;;10.30;10.10;;;18.40;52.90;;;;;;5092637;28;20448;-60
2023/04/03 12:15:54;;;;;;;9.80;9.60;;;18.40;52.90;;;;;;5092610;28;20478;-61
2023/04/03 12:18:59;;;;;;;10.40;10.10;;;18.40;52.90;;;;;;5092457;28;20438;-62
2023/04/03 12:21:59;;;;;;;10.17;9.97;;;18.40;52.90;;;;;;5092489;28;20458;-62
2023/04/03 12:24:27;;;;;;;10.47;10.27;;;18.40;53.00;;;;;;5092474;28;20481;-61
2023/04/03 12:27:10;;;;;;;9.50;9.30;;;18.40;53.00;;;;;;5092122;28;20470;-61
2023/04/03 12:29:44;;;;;;;10.80;10.50;;;18.40;52.90;;;;;;5092310;28;20473;-61
2023/04/03 12:32:23;;;;;;;9.90;9.70;;;18.40;52.90;;;;;;5092231;28;20482;-61
2023/04/03 12:35:06;;;;;;;9.80;9.60;;;18.40;52.90;;;;;;5092298;28;20525;-58
2023/04/03 12:38:05;;;;;;;9.87;9.67;;;18.40;52.90;;;;;;5092141;28;20440;-60
2023/04/03 12:40:38;;;;;;;9.33;9.13;;;18.50;52.90;;;;;;5058207;28;20553;-61
2023/04/03 12:43:29;;;;;;;9.80;9.60;;;18.50;52.90;;;;;;5092258;28;20860;-61
2023/04/03 12:46:04;;;;;;;10.30;10.00;;;18.50;52.90;;;;;;5092114;28;20473;-62